sensor_id;sensor_type;location;lat;lon;timestamp;P1;durP1;ratioP1;P2;durP2;ratioP2
47309;SDS011;33046;52.270;6.832;2023-03-29T00:00:24;4.85;;;3.08;;
47309;SDS011;33046;52.270;6.832;2023-03-29T00:02:31;5.85;;;3.83;;
47309;SDS011;33046;52.270;6.832;2023-03-29T00:04:38;4.35;;;3.38;;
47309;SDS011;33046;52.270;6.832;2023-03-29T00:06:45;7.22;;;3.67;;
47309;SDS011;33046;52.270;6.832;2023-03-29T00:08:52;6.53;;;4.22;;
47309;SDS011;33046;52.270;6.832;2023-03-29T00:10:59;6.85;;;4.80;;
47309;SDS011;33046;52.270;6.832;2023-03-29T00:13:07;8.30;;;4.25;;
47309;SDS011;33046;52.270;6.832;2023-03-29T00:15:14;6.60;;;4.38;;
47309;SDS011;33046;52.270;6.832;2023-03-29T00:17:21;8.18;;;5.18;;
47309;SDS011;33046;52.270;6.832;2023-03-29T00:19:28;5.50;;;4.95;;
47309;SDS011;33046;52.270;6.832;2023-03-29T00:21:34;7.43;;;5.10;;
47309;SDS011;33046;52.270;6.832;2023-03-29T00:23:41;7.40;;;5.13;;
47309;SDS011;33046;52.270;6.832;2023-03-29T00:25:49;7.43;;;5.18;;
47309;SDS011;33046;52.270;6.832;2023-03-29T00:27:56;6.63;;;4.60;;
47309;SDS011;33046;52.270;6.832;2023-03-29T00:30:05;8.02;;;5.53;;
47309;SDS011;33046;52.270;6.832;2023-03-29T00:32:13;10.43;;;5.88;;
47309;SDS011;33046;52.270;6.832;2023-03-29T00:34:20;6.60;;;5.18;;
47309;SDS011;33046;52.270;6.832;2023-03-29T00:36:28;8.63;;;6.78;;
47309;SDS011;33046;52.270;6.832;2023-03-29T00:38:35;8.38;;;5.47;;
47309;SDS011;33046;52.270;6.832;2023-03-29T00:40:42;9.13;;;5.68;;
47309;SDS011;33046;52.270;6.832;2023-03-29T00:42:50;8.80;;;6.13;;
47309;SDS011;33046;52.270;6.832;2023-03-29T00:44:58;6.78;;;5.40;;
47309;SDS011;33046;52.270;6.832;2023-03-29T00:47:08;7.80;;;5.63;;
47309;SDS011;33046;52.270;6.832;2023-03-29T00:49:15;6.25;;;5.25;;
47309;SDS011;33046;52.270;6.832;2023-03-29T00:51:22;6.82;;;5.50;;
47309;SDS011;33046;52.270;6.832;2023-03-29T00:53:32;7.13;;;5.35;;
47309;SDS011;33046;52.270;6.832;2023-03-29T00:55:43;10.80;;;5.68;;
47309;SDS011;33046;52.270;6.832;2023-03-29T00:57:54;7.55;;;6.10;;
47309;SDS011;33046;52.270;6.832;2023-03-29T01:00:03;9.10;;;6.40;;
47309;SDS011;33046;52.270;6.832;2023-03-29T01:02:13;8.85;;;4.60;;
47309;SDS011;33046;52.270;6.832;2023-03-29T01:04:24;6.95;;;5.03;;
47309;SDS011;33046;52.270;6.832;2023-03-29T01:06:36;6.75;;;4.72;;
47309;SDS011;33046;52.270;6.832;2023-03-29T01:08:46;11.10;;;6.43;;
47309;SDS011;33046;52.270;6.832;2023-03-29T01:10:57;7.50;;;4.95;;
47309;SDS011;33046;52.270;6.832;2023-03-29T01:13:09;5.40;;;4.85;;
47309;SDS011;33046;52.270;6.832;2023-03-29T01:15:21;7.90;;;5.45;;
47309;SDS011;33046;52.270;6.832;2023-03-29T01:17:32;5.75;;;4.43;;
47309;SDS011;33046;52.270;6.832;2023-03-29T01:19:39;6.07;;;4.78;;
47309;SDS011;33046;52.270;6.832;2023-03-29T01:21:51;6.55;;;4.80;;
47309;SDS011;33046;52.270;6.832;2023-03-29T01:26:47;6.15;;;4.75;;
47309;SDS011;33046;52.270;6.832;2023-03-29T01:29:02;7.30;;;5.43;;
47309;SDS011;33046;52.270;6.832;2023-03-29T01:31:14;8.45;;;5.35;;
47309;SDS011;33046;52.270;6.832;2023-03-29T01:33:27;7.50;;;5.15;;
47309;SDS011;33046;52.270;6.832;2023-03-29T01:35:39;8.95;;;5.45;;
47309;SDS011;33046;52.270;6.832;2023-03-29T01:37:49;6.05;;;4.80;;
47309;SDS011;33046;52.270;6.832;2023-03-29T01:40:00;5.75;;;5.13;;
47309;SDS011;33046;52.270;6.832;2023-03-29T01:44:36;7.00;;;5.30;;
47309;SDS011;33046;52.270;6.832;2023-03-29T01:46:52;6.75;;;5.05;;
47309;SDS011;33046;52.270;6.832;2023-03-29T01:49:07;7.00;;;5.80;;
47309;SDS011;33046;52.270;6.832;2023-03-29T01:51:20;6.47;;;4.43;;
47309;SDS011;33046;52.270;6.832;2023-03-29T01:53:32;9.15;;;5.38;;
47309;SDS011;33046;52.270;6.832;2023-03-29T01:55:43;5.83;;;5.00;;
47309;SDS011;33046;52.270;6.832;2023-03-29T01:57:54;6.88;;;5.63;;
47309;SDS011;33046;52.270;6.832;2023-03-29T02:00:05;8.68;;;5.50;;
47309;SDS011;33046;52.270;6.832;2023-03-29T02:02:16;9.38;;;5.78;;
47309;SDS011;33046;52.270;6.832;2023-03-29T02:04:26;6.20;;;5.07;;
47309;SDS011;33046;52.270;6.832;2023-03-29T02:06:35;6.93;;;5.38;;
47309;SDS011;33046;52.270;6.832;2023-03-29T02:08:44;9.02;;;5.70;;
47309;SDS011;33046;52.270;6.832;2023-03-29T02:10:52;7.72;;;5.88;;
47309;SDS011;33046;52.270;6.832;2023-03-29T02:12:59;7.75;;;6.22;;
47309;SDS011;33046;52.270;6.832;2023-03-29T02:15:10;11.00;;;5.78;;
47309;SDS011;33046;52.270;6.832;2023-03-29T02:17:19;7.85;;;6.97;;
47309;SDS011;33046;52.270;6.832;2023-03-29T02:19:28;8.07;;;5.95;;
47309;SDS011;33046;52.270;6.832;2023-03-29T02:21:36;7.53;;;6.05;;
47309;SDS011;33046;52.270;6.832;2023-03-29T02:23:48;7.38;;;5.95;;
47309;SDS011;33046;52.270;6.832;2023-03-29T02:25:56;11.43;;;6.40;;
47309;SDS011;33046;52.270;6.832;2023-03-29T02:28:05;7.65;;;5.45;;
47309;SDS011;33046;52.270;6.832;2023-03-29T02:30:14;7.55;;;6.18;;
47309;SDS011;33046;52.270;6.832;2023-03-29T02:32:23;9.30;;;6.10;;
47309;SDS011;33046;52.270;6.832;2023-03-29T02:34:36;6.80;;;5.57;;
47309;SDS011;33046;52.270;6.832;2023-03-29T02:36:47;8.55;;;5.32;;
47309;SDS011;33046;52.270;6.832;2023-03-29T02:38:57;9.65;;;6.30;;
47309;SDS011;33046;52.270;6.832;2023-03-29T02:41:06;7.40;;;5.28;;
47309;SDS011;33046;52.270;6.832;2023-03-29T02:43:14;7.97;;;5.57;;
47309;SDS011;33046;52.270;6.832;2023-03-29T02:45:23;7.30;;;5.72;;
47309;SDS011;33046;52.270;6.832;2023-03-29T02:47:31;6.75;;;5.30;;
47309;SDS011;33046;52.270;6.832;2023-03-29T02:49:42;7.93;;;6.13;;
47309;SDS011;33046;52.270;6.832;2023-03-29T02:51:49;8.75;;;5.90;;
47309;SDS011;33046;52.270;6.832;2023-03-29T02:54:00;7.60;;;4.88;;
47309;SDS011;33046;52.270;6.832;2023-03-29T02:56:10;7.57;;;6.40;;
47309;SDS011;33046;52.270;6.832;2023-03-29T02:58:18;9.43;;;5.60;;
47309;SDS011;33046;52.270;6.832;2023-03-29T03:00:27;7.20;;;5.63;;
47309;SDS011;33046;52.270;6.832;2023-03-29T03:02:34;9.60;;;6.25;;
47309;SDS011;33046;52.270;6.832;2023-03-29T03:04:41;9.23;;;6.40;;
47309;SDS011;33046;52.270;6.832;2023-03-29T03:06:48;8.02;;;5.68;;
47309;SDS011;33046;52.270;6.832;2023-03-29T03:08:54;7.80;;;5.90;;
47309;SDS011;33046;52.270;6.832;2023-03-29T03:11:01;15.07;;;7.90;;
47309;SDS011;33046;52.270;6.832;2023-03-29T03:13:08;9.18;;;5.65;;
47309;SDS011;33046;52.270;6.832;2023-03-29T03:15:15;7.22;;;5.30;;
47309;SDS011;33046;52.270;6.832;2023-03-29T03:17:23;7.95;;;5.80;;
47309;SDS011;33046;52.270;6.832;2023-03-29T03:19:30;6.45;;;5.70;;
47309;SDS011;33046;52.270;6.832;2023-03-29T03:21:37;10.45;;;6.57;;
47309;SDS011;33046;52.270;6.832;2023-03-29T03:23:44;9.07;;;5.82;;
47309;SDS011;33046;52.270;6.832;2023-03-29T03:25:51;7.95;;;5.95;;
47309;SDS011;33046;52.270;6.832;2023-03-29T03:27:58;8.18;;;6.07;;
47309;SDS011;33046;52.270;6.832;2023-03-29T03:30:05;7.97;;;6.57;;
47309;SDS011;33046;52.270;6.832;2023-03-29T03:32:32;9.18;;;6.75;;
47309;SDS011;33046;52.270;6.832;2023-03-29T03:35:09;6.80;;;5.43;;
47309;SDS011;33046;52.270;6.832;2023-03-29T03:37:15;8.60;;;6.05;;
47309;SDS011;33046;52.270;6.832;2023-03-29T03:39:22;6.72;;;5.70;;
47309;SDS011;33046;52.270;6.832;2023-03-29T03:41:29;7.25;;;5.65;;
47309;SDS011;33046;52.270;6.832;2023-03-29T03:43:36;7.95;;;6.25;;
47309;SDS011;33046;52.270;6.832;2023-03-29T03:45:44;8.30;;;6.60;;
47309;SDS011;33046;52.270;6.832;2023-03-29T03:47:56;8.77;;;6.43;;
47309;SDS011;33046;52.270;6.832;2023-03-29T03:50:31;8.73;;;6.25;;
47309;SDS011;33046;52.270;6.832;2023-03-29T03:52:39;8.80;;;5.80;;
47309;SDS011;33046;52.270;6.832;2023-03-29T03:54:47;9.80;;;5.75;;
47309;SDS011;33046;52.270;6.832;2023-03-29T03:57:14;11.55;;;6.80;;
47309;SDS011;33046;52.270;6.832;2023-03-29T03:59:29;6.90;;;5.85;;
47309;SDS011;33046;52.270;6.832;2023-03-29T04:01:41;8.35;;;6.15;;
47309;SDS011;33046;52.270;6.832;2023-03-29T04:06:03;8.60;;;6.03;;
47309;SDS011;33046;52.270;6.832;2023-03-29T04:08:31;10.93;;;6.18;;
47309;SDS011;33046;52.270;6.832;2023-03-29T04:11:04;7.60;;;5.90;;
47309;SDS011;33046;52.270;6.832;2023-03-29T04:13:16;9.40;;;6.70;;
47309;SDS011;33046;52.270;6.832;2023-03-29T04:15:41;7.82;;;5.60;;
47309;SDS011;33046;52.270;6.832;2023-03-29T04:17:50;8.80;;;6.47;;
47309;SDS011;33046;52.270;6.832;2023-03-29T04:20:19;6.70;;;5.95;;
47309;SDS011;33046;52.270;6.832;2023-03-29T04:22:26;7.38;;;5.80;;
47309;SDS011;33046;52.270;6.832;2023-03-29T04:24:33;8.18;;;5.90;;
47309;SDS011;33046;52.270;6.832;2023-03-29T04:26:57;8.55;;;6.63;;
47309;SDS011;33046;52.270;6.832;2023-03-29T04:29:04;8.23;;;6.88;;
47309;SDS011;33046;52.270;6.832;2023-03-29T04:31:20;10.18;;;7.10;;
47309;SDS011;33046;52.270;6.832;2023-03-29T04:33:32;9.20;;;6.30;;
47309;SDS011;33046;52.270;6.832;2023-03-29T04:35:41;10.15;;;7.25;;
47309;SDS011;33046;52.270;6.832;2023-03-29T04:37:52;10.43;;;6.47;;
47309;SDS011;33046;52.270;6.832;2023-03-29T04:40:00;9.45;;;6.55;;
47309;SDS011;33046;52.270;6.832;2023-03-29T04:44:21;10.70;;;6.07;;
47309;SDS011;33046;52.270;6.832;2023-03-29T04:46:28;7.90;;;6.85;;
47309;SDS011;33046;52.270;6.832;2023-03-29T04:48:53;10.52;;;6.10;;
47309;SDS011;33046;52.270;6.832;2023-03-29T04:51:12;8.00;;;7.18;;
47309;SDS011;33046;52.270;6.832;2023-03-29T04:53:22;7.47;;;6.35;;
47309;SDS011;33046;52.270;6.832;2023-03-29T04:55:29;8.55;;;6.63;;
47309;SDS011;33046;52.270;6.832;2023-03-29T04:57:39;9.50;;;6.95;;
47309;SDS011;33046;52.270;6.832;2023-03-29T05:00:12;10.30;;;6.88;;
47309;SDS011;33046;52.270;6.832;2023-03-29T05:04:53;8.68;;;7.45;;
47309;SDS011;33046;52.270;6.832;2023-03-29T05:07:02;10.68;;;7.00;;
47309;SDS011;33046;52.270;6.832;2023-03-29T05:09:09;9.05;;;7.03;;
47309;SDS011;33046;52.270;6.832;2023-03-29T05:11:27;12.27;;;7.40;;
47309;SDS011;33046;52.270;6.832;2023-03-29T05:13:34;13.73;;;7.63;;
47309;SDS011;33046;52.270;6.832;2023-03-29T05:15:41;10.07;;;7.40;;
47309;SDS011;33046;52.270;6.832;2023-03-29T05:17:48;9.15;;;6.97;;
47309;SDS011;33046;52.270;6.832;2023-03-29T05:19:56;9.57;;;6.43;;
47309;SDS011;33046;52.270;6.832;2023-03-29T05:22:05;8.50;;;7.15;;
47309;SDS011;33046;52.270;6.832;2023-03-29T05:24:12;13.93;;;7.75;;
47309;SDS011;33046;52.270;6.832;2023-03-29T05:26:39;7.43;;;6.63;;
47309;SDS011;33046;52.270;6.832;2023-03-29T05:28:46;10.63;;;7.13;;
47309;SDS011;33046;52.270;6.832;2023-03-29T05:30:59;10.85;;;7.80;;
47309;SDS011;33046;52.270;6.832;2023-03-29T05:33:08;11.98;;;8.95;;
47309;SDS011;33046;52.270;6.832;2023-03-29T05:35:15;10.30;;;6.55;;
47309;SDS011;33046;52.270;6.832;2023-03-29T05:37:24;8.63;;;6.53;;
47309;SDS011;33046;52.270;6.832;2023-03-29T05:39:37;9.88;;;7.20;;
47309;SDS011;33046;52.270;6.832;2023-03-29T05:41:44;8.65;;;6.40;;
47309;SDS011;33046;52.270;6.832;2023-03-29T05:44:17;11.20;;;7.33;;
47309;SDS011;33046;52.270;6.832;2023-03-29T05:46:29;9.27;;;6.43;;
47309;SDS011;33046;52.270;6.832;2023-03-29T05:48:39;7.60;;;6.72;;
47309;SDS011;33046;52.270;6.832;2023-03-29T05:50:47;7.05;;;5.97;;
47309;SDS011;33046;52.270;6.832;2023-03-29T05:52:56;9.82;;;6.88;;
47309;SDS011;33046;52.270;6.832;2023-03-29T05:55:03;8.45;;;5.70;;
47309;SDS011;33046;52.270;6.832;2023-03-29T05:57:11;8.18;;;6.40;;
47309;SDS011;33046;52.270;6.832;2023-03-29T05:59:18;8.20;;;6.72;;
47309;SDS011;33046;52.270;6.832;2023-03-29T06:01:26;8.30;;;7.03;;
47309;SDS011;33046;52.270;6.832;2023-03-29T06:03:43;11.95;;;6.85;;
47309;SDS011;33046;52.270;6.832;2023-03-29T06:05:54;8.63;;;6.97;;
47309;SDS011;33046;52.270;6.832;2023-03-29T06:08:04;7.53;;;5.80;;
47309;SDS011;33046;52.270;6.832;2023-03-29T06:10:35;6.97;;;5.85;;
47309;SDS011;33046;52.270;6.832;2023-03-29T06:13:00;8.27;;;5.82;;
47309;SDS011;33046;52.270;6.832;2023-03-29T06:15:10;11.18;;;6.38;;
47309;SDS011;33046;52.270;6.832;2023-03-29T06:17:29;6.32;;;5.72;;
47309;SDS011;33046;52.270;6.832;2023-03-29T06:19:36;9.23;;;7.25;;
47309;SDS011;33046;52.270;6.832;2023-03-29T06:21:43;8.63;;;5.47;;
47309;SDS011;33046;52.270;6.832;2023-03-29T06:23:55;5.70;;;4.70;;
47309;SDS011;33046;52.270;6.832;2023-03-29T06:26:02;8.60;;;5.22;;
47309;SDS011;33046;52.270;6.832;2023-03-29T06:28:10;7.97;;;5.05;;
47309;SDS011;33046;52.270;6.832;2023-03-29T06:30:18;10.65;;;5.07;;
47309;SDS011;33046;52.270;6.832;2023-03-29T06:32:29;7.60;;;5.75;;
47309;SDS011;33046;52.270;6.832;2023-03-29T06:34:40;7.93;;;4.93;;
47309;SDS011;33046;52.270;6.832;2023-03-29T06:37:06;6.30;;;5.45;;
47309;SDS011;33046;52.270;6.832;2023-03-29T06:39:14;9.85;;;5.20;;
47309;SDS011;33046;52.270;6.832;2023-03-29T06:41:44;5.60;;;4.57;;
47309;SDS011;33046;52.270;6.832;2023-03-29T06:44:02;6.72;;;4.25;;
47309;SDS011;33046;52.270;6.832;2023-03-29T06:46:13;6.80;;;5.05;;
47309;SDS011;33046;52.270;6.832;2023-03-29T06:48:33;5.95;;;4.88;;
47309;SDS011;33046;52.270;6.832;2023-03-29T06:50:40;5.72;;;4.30;;
47309;SDS011;33046;52.270;6.832;2023-03-29T06:52:53;5.80;;;4.25;;
47309;SDS011;33046;52.270;6.832;2023-03-29T06:55:01;6.47;;;4.47;;
47309;SDS011;33046;52.270;6.832;2023-03-29T06:57:08;8.40;;;5.28;;
47309;SDS011;33046;52.270;6.832;2023-03-29T06:59:16;5.20;;;4.45;;
47309;SDS011;33046;52.270;6.832;2023-03-29T07:01:36;8.30;;;4.20;;
47309;SDS011;33046;52.270;6.832;2023-03-29T07:03:55;8.55;;;4.30;;
47309;SDS011;33046;52.270;6.832;2023-03-29T07:06:10;9.25;;;4.63;;
47309;SDS011;33046;52.270;6.832;2023-03-29T07:08:19;6.65;;;4.70;;
47309;SDS011;33046;52.270;6.832;2023-03-29T07:10:35;6.13;;;5.20;;
47309;SDS011;33046;52.270;6.832;2023-03-29T07:13:02;8.15;;;4.40;;
47309;SDS011;33046;52.270;6.832;2023-03-29T07:15:10;11.65;;;5.60;;
47309;SDS011;33046;52.270;6.832;2023-03-29T07:17:35;7.32;;;5.03;;
47309;SDS011;33046;52.270;6.832;2023-03-29T07:19:42;8.05;;;4.70;;
47309;SDS011;33046;52.270;6.832;2023-03-29T07:22:12;8.32;;;5.00;;
47309;SDS011;33046;52.270;6.832;2023-03-29T07:24:26;7.75;;;4.47;;
47309;SDS011;33046;52.270;6.832;2023-03-29T07:26:35;6.90;;;4.10;;
47309;SDS011;33046;52.270;6.832;2023-03-29T07:28:42;5.85;;;3.90;;
47309;SDS011;33046;52.270;6.832;2023-03-29T07:30:48;8.65;;;3.70;;
47309;SDS011;33046;52.270;6.832;2023-03-29T07:32:59;6.43;;;4.07;;
47309;SDS011;33046;52.270;6.832;2023-03-29T07:35:11;8.15;;;4.07;;
47309;SDS011;33046;52.270;6.832;2023-03-29T07:37:20;8.75;;;4.00;;
47309;SDS011;33046;52.270;6.832;2023-03-29T07:39:27;4.13;;;3.47;;
47309;SDS011;33046;52.270;6.832;2023-03-29T07:41:56;7.78;;;3.97;;
47309;SDS011;33046;52.270;6.832;2023-03-29T07:44:04;9.23;;;4.80;;
47309;SDS011;33046;52.270;6.832;2023-03-29T07:46:11;6.85;;;3.47;;
47309;SDS011;33046;52.270;6.832;2023-03-29T07:48:18;7.30;;;4.47;;
47309;SDS011;33046;52.270;6.832;2023-03-29T07:50:30;6.28;;;4.20;;
47309;SDS011;33046;52.270;6.832;2023-03-29T07:52:38;7.35;;;4.10;;
47309;SDS011;33046;52.270;6.832;2023-03-29T07:54:45;4.40;;;3.25;;
47309;SDS011;33046;52.270;6.832;2023-03-29T07:57:05;4.55;;;3.63;;
47309;SDS011;33046;52.270;6.832;2023-03-29T07:59:19;12.48;;;4.25;;
47309;SDS011;33046;52.270;6.832;2023-03-29T08:01:33;5.03;;;3.90;;
47309;SDS011;33046;52.270;6.832;2023-03-29T08:03:52;8.43;;;4.20;;
47309;SDS011;33046;52.270;6.832;2023-03-29T08:06:04;5.78;;;4.00;;
47309;SDS011;33046;52.270;6.832;2023-03-29T08:08:11;8.98;;;6.43;;
47309;SDS011;33046;52.270;6.832;2023-03-29T08:10:35;5.63;;;4.75;;
47309;SDS011;33046;52.270;6.832;2023-03-29T08:12:53;8.45;;;5.82;;
47309;SDS011;33046;52.270;6.832;2023-03-29T08:15:08;6.70;;;4.65;;
47309;SDS011;33046;52.270;6.832;2023-03-29T08:17:17;6.13;;;3.97;;
47309;SDS011;33046;52.270;6.832;2023-03-29T08:19:27;4.65;;;3.08;;
47309;SDS011;33046;52.270;6.832;2023-03-29T08:21:44;5.57;;;3.55;;
47309;SDS011;33046;52.270;6.832;2023-03-29T08:23:52;4.88;;;3.55;;
47309;SDS011;33046;52.270;6.832;2023-03-29T08:26:03;5.97;;;3.58;;
47309;SDS011;33046;52.270;6.832;2023-03-29T08:28:12;4.93;;;2.95;;
47309;SDS011;33046;52.270;6.832;2023-03-29T08:30:24;5.88;;;3.53;;
47309;SDS011;33046;52.270;6.832;2023-03-29T08:32:31;5.45;;;3.22;;
47309;SDS011;33046;52.270;6.832;2023-03-29T08:34:38;4.47;;;3.50;;
47309;SDS011;33046;52.270;6.832;2023-03-29T08:36:59;5.28;;;3.47;;
47309;SDS011;33046;52.270;6.832;2023-03-29T08:39:15;6.78;;;3.30;;
47309;SDS011;33046;52.270;6.832;2023-03-29T08:41:32;6.50;;;3.15;;
47309;SDS011;33046;52.270;6.832;2023-03-29T08:43:59;5.78;;;4.07;;
47309;SDS011;33046;52.270;6.832;2023-03-29T08:46:36;8.02;;;4.20;;
47309;SDS011;33046;52.270;6.832;2023-03-29T08:49:08;7.68;;;4.72;;
47309;SDS011;33046;52.270;6.832;2023-03-29T08:51:18;7.35;;;5.15;;
47309;SDS011;33046;52.270;6.832;2023-03-29T08:53:28;6.43;;;4.30;;
47309;SDS011;33046;52.270;6.832;2023-03-29T08:55:58;6.20;;;4.10;;
47309;SDS011;33046;52.270;6.832;2023-03-29T08:58:30;7.28;;;4.25;;
47309;SDS011;33046;52.270;6.832;2023-03-29T09:00:42;8.93;;;5.25;;
47309;SDS011;33046;52.270;6.832;2023-03-29T09:02:52;9.35;;;4.43;;
47309;SDS011;33046;52.270;6.832;2023-03-29T09:05:02;7.75;;;4.10;;
47309;SDS011;33046;52.270;6.832;2023-03-29T09:07:31;7.60;;;4.80;;
47309;SDS011;33046;52.270;6.832;2023-03-29T09:09:38;6.35;;;4.53;;
47309;SDS011;33046;52.270;6.832;2023-03-29T09:12:06;6.55;;;4.20;;
47309;SDS011;33046;52.270;6.832;2023-03-29T09:14:26;8.68;;;5.63;;
47309;SDS011;33046;52.270;6.832;2023-03-29T09:16:47;4.43;;;4.03;;
47309;SDS011;33046;52.270;6.832;2023-03-29T09:19:03;5.22;;;3.65;;
47309;SDS011;33046;52.270;6.832;2023-03-29T09:21:15;9.50;;;4.43;;
47309;SDS011;33046;52.270;6.832;2023-03-29T09:26:21;4.50;;;3.08;;
47309;SDS011;33046;52.270;6.832;2023-03-29T09:28:50;5.55;;;4.05;;
47309;SDS011;33046;52.270;6.832;2023-03-29T09:31:07;6.53;;;3.97;;
47309;SDS011;33046;52.270;6.832;2023-03-29T09:33:22;6.25;;;3.63;;
47309;SDS011;33046;52.270;6.832;2023-03-29T09:35:44;7.70;;;4.32;;
47309;SDS011;33046;52.270;6.832;2023-03-29T09:37:56;7.40;;;4.03;;
47309;SDS011;33046;52.270;6.832;2023-03-29T09:40:08;8.10;;;3.85;;
47309;SDS011;33046;52.270;6.832;2023-03-29T09:42:32;7.10;;;4.15;;
47309;SDS011;33046;52.270;6.832;2023-03-29T09:44:41;8.05;;;3.13;;
47309;SDS011;33046;52.270;6.832;2023-03-29T09:46:57;8.50;;;4.30;;
47309;SDS011;33046;52.270;6.832;2023-03-29T09:49:12;7.35;;;4.10;;
47309;SDS011;33046;52.270;6.832;2023-03-29T09:51:23;8.07;;;4.32;;
47309;SDS011;33046;52.270;6.832;2023-03-29T09:53:33;11.30;;;4.55;;
47309;SDS011;33046;52.270;6.832;2023-03-29T09:55:52;5.10;;;3.53;;
47309;SDS011;33046;52.270;6.832;2023-03-29T09:58:22;7.68;;;4.82;;
47309;SDS011;33046;52.270;6.832;2023-03-29T10:00:32;7.05;;;3.92;;
47309;SDS011;33046;52.270;6.832;2023-03-29T10:02:39;6.18;;;3.97;;
47309;SDS011;33046;52.270;6.832;2023-03-29T10:04:52;6.75;;;4.40;;
47309;SDS011;33046;52.270;6.832;2023-03-29T10:06:59;6.03;;;4.15;;
47309;SDS011;33046;52.270;6.832;2023-03-29T10:09:10;5.57;;;4.22;;
47309;SDS011;33046;52.270;6.832;2023-03-29T10:11:24;5.95;;;3.95;;
47309;SDS011;33046;52.270;6.832;2023-03-29T10:13:35;6.77;;;5.40;;
47309;SDS011;33046;52.270;6.832;2023-03-29T10:18:12;9.88;;;5.68;;
47309;SDS011;33046;52.270;6.832;2023-03-29T10:20:20;7.75;;;5.30;;
47309;SDS011;33046;52.270;6.832;2023-03-29T10:22:31;11.05;;;5.22;;
47309;SDS011;33046;52.270;6.832;2023-03-29T10:24:40;5.82;;;4.88;;
47309;SDS011;33046;52.270;6.832;2023-03-29T10:29:11;8.57;;;4.95;;
47309;SDS011;33046;52.270;6.832;2023-03-29T10:31:19;7.57;;;5.25;;
47309;SDS011;33046;52.270;6.832;2023-03-29T10:33:28;8.07;;;5.28;;
47309;SDS011;33046;52.270;6.832;2023-03-29T10:35:39;6.65;;;4.57;;
47309;SDS011;33046;52.270;6.832;2023-03-29T10:37:50;8.32;;;6.03;;
47309;SDS011;33046;52.270;6.832;2023-03-29T10:40:00;6.13;;;4.65;;
47309;SDS011;33046;52.270;6.832;2023-03-29T10:47:45;7.18;;;4.78;;
47309;SDS011;33046;52.270;6.832;2023-03-29T10:49:54;8.70;;;5.05;;
47309;SDS011;33046;52.270;6.832;2023-03-29T10:52:05;6.53;;;4.32;;
47309;SDS011;33046;52.270;6.832;2023-03-29T10:54:12;6.40;;;5.03;;
47309;SDS011;33046;52.270;6.832;2023-03-29T10:56:30;7.18;;;4.65;;
47309;SDS011;33046;52.270;6.832;2023-03-29T10:58:47;6.82;;;5.00;;
47309;SDS011;33046;52.270;6.832;2023-03-29T11:01:07;13.95;;;5.07;;
47309;SDS011;33046;52.270;6.832;2023-03-29T11:06:03;5.40;;;4.82;;
47309;SDS011;33046;52.270;6.832;2023-03-29T11:08:22;7.18;;;4.78;;
47309;SDS011;33046;52.270;6.832;2023-03-29T11:10:53;8.25;;;5.15;;
47309;SDS011;33046;52.270;6.832;2023-03-29T11:13:07;7.55;;;5.97;;
47309;SDS011;33046;52.270;6.832;2023-03-29T11:15:29;13.15;;;5.45;;
47309;SDS011;33046;52.270;6.832;2023-03-29T11:19:59;5.88;;;4.13;;
47309;SDS011;33046;52.270;6.832;2023-03-29T11:22:18;7.50;;;5.97;;
47309;SDS011;33046;52.270;6.832;2023-03-29T11:24:38;6.70;;;5.68;;
47309;SDS011;33046;52.270;6.832;2023-03-29T11:27:03;6.18;;;5.57;;
47309;SDS011;33046;52.270;6.832;2023-03-29T11:29:18;6.10;;;5.50;;
47309;SDS011;33046;52.270;6.832;2023-03-29T11:31:33;6.45;;;5.53;;
47309;SDS011;33046;52.270;6.832;2023-03-29T11:33:48;8.20;;;5.63;;
47309;SDS011;33046;52.270;6.832;2023-03-29T11:36:04;8.85;;;5.35;;
47309;SDS011;33046;52.270;6.832;2023-03-29T11:40:32;7.47;;;5.20;;
47309;SDS011;33046;52.270;6.832;2023-03-29T11:42:46;8.13;;;5.82;;
47309;SDS011;33046;52.270;6.832;2023-03-29T11:44:55;7.07;;;5.40;;
47309;SDS011;33046;52.270;6.832;2023-03-29T11:47:05;6.93;;;5.72;;
47309;SDS011;33046;52.270;6.832;2023-03-29T11:49:15;7.55;;;5.00;;
47309;SDS011;33046;52.270;6.832;2023-03-29T11:51:26;8.98;;;6.00;;
47309;SDS011;33046;52.270;6.832;2023-03-29T11:53:39;6.30;;;4.43;;
47309;SDS011;33046;52.270;6.832;2023-03-29T11:55:52;7.07;;;5.28;;
47309;SDS011;33046;52.270;6.832;2023-03-29T11:58:01;5.07;;;4.28;;
47309;SDS011;33046;52.270;6.832;2023-03-29T12:00:13;6.65;;;4.47;;
47309;SDS011;33046;52.270;6.832;2023-03-29T12:02:24;6.72;;;5.18;;
47309;SDS011;33046;52.270;6.832;2023-03-29T12:04:40;5.53;;;3.97;;
47309;SDS011;33046;52.270;6.832;2023-03-29T12:06:52;6.70;;;4.43;;
47309;SDS011;33046;52.270;6.832;2023-03-29T12:09:06;14.88;;;5.03;;
47309;SDS011;33046;52.270;6.832;2023-03-29T12:11:25;12.35;;;4.68;;
47309;SDS011;33046;52.270;6.832;2023-03-29T12:13:36;15.45;;;9.57;;
47309;SDS011;33046;52.270;6.832;2023-03-29T12:15:48;28.35;;;12.77;;
47309;SDS011;33046;52.270;6.832;2023-03-29T12:18:04;12.15;;;8.77;;
47309;SDS011;33046;52.270;6.832;2023-03-29T12:20:18;8.23;;;7.43;;
47309;SDS011;33046;52.270;6.832;2023-03-29T12:22:29;7.43;;;5.28;;
47309;SDS011;33046;52.270;6.832;2023-03-29T12:24:38;11.00;;;4.45;;
47309;SDS011;33046;52.270;6.832;2023-03-29T12:26:54;5.80;;;4.03;;
47309;SDS011;33046;52.270;6.832;2023-03-29T12:29:14;5.88;;;5.10;;
47309;SDS011;33046;52.270;6.832;2023-03-29T12:31:32;6.47;;;5.88;;
47309;SDS011;33046;52.270;6.832;2023-03-29T12:33:53;12.10;;;6.20;;
47309;SDS011;33046;52.270;6.832;2023-03-29T12:36:37;8.93;;;6.97;;
47309;SDS011;33046;52.270;6.832;2023-03-29T12:38:56;8.15;;;4.95;;
47309;SDS011;33046;52.270;6.832;2023-03-29T12:41:26;6.15;;;5.05;;
47309;SDS011;33046;52.270;6.832;2023-03-29T12:44:04;6.55;;;5.60;;
47309;SDS011;33046;52.270;6.832;2023-03-29T12:46:19;7.55;;;6.07;;
47309;SDS011;33046;52.270;6.832;2023-03-29T12:48:29;7.22;;;4.90;;
47309;SDS011;33046;52.270;6.832;2023-03-29T12:50:36;6.55;;;5.20;;
47309;SDS011;33046;52.270;6.832;2023-03-29T12:52:51;6.07;;;4.75;;
47309;SDS011;33046;52.270;6.832;2023-03-29T12:54:58;6.15;;;5.30;;
47309;SDS011;33046;52.270;6.832;2023-03-29T12:57:17;6.75;;;4.47;;
47309;SDS011;33046;52.270;6.832;2023-03-29T12:59:33;9.18;;;4.55;;
47309;SDS011;33046;52.270;6.832;2023-03-29T13:01:55;6.47;;;4.90;;
47309;SDS011;33046;52.270;6.832;2023-03-29T13:04:11;5.60;;;4.47;;
47309;SDS011;33046;52.270;6.832;2023-03-29T13:06:25;6.25;;;4.75;;
47309;SDS011;33046;52.270;6.832;2023-03-29T13:08:35;5.32;;;4.75;;
47309;SDS011;33046;52.270;6.832;2023-03-29T13:10:49;5.32;;;4.13;;
47309;SDS011;33046;52.270;6.832;2023-03-29T13:13:06;6.60;;;5.05;;
47309;SDS011;33046;52.270;6.832;2023-03-29T13:15:22;4.20;;;3.75;;
47309;SDS011;33046;52.270;6.832;2023-03-29T13:17:33;5.78;;;4.60;;
47309;SDS011;33046;52.270;6.832;2023-03-29T13:19:46;4.15;;;3.75;;
47309;SDS011;33046;52.270;6.832;2023-03-29T13:22:04;4.65;;;3.92;;
47309;SDS011;33046;52.270;6.832;2023-03-29T13:24:23;5.03;;;4.00;;
47309;SDS011;33046;52.270;6.832;2023-03-29T13:26:46;5.38;;;4.50;;
47309;SDS011;33046;52.270;6.832;2023-03-29T13:29:07;6.03;;;4.35;;
47309;SDS011;33046;52.270;6.832;2023-03-29T13:31:30;5.72;;;4.60;;
47309;SDS011;33046;52.270;6.832;2023-03-29T13:33:54;4.68;;;3.83;;
47309;SDS011;33046;52.270;6.832;2023-03-29T13:36:06;6.57;;;3.93;;
47309;SDS011;33046;52.270;6.832;2023-03-29T13:38:20;5.28;;;4.05;;
47309;SDS011;33046;52.270;6.832;2023-03-29T13:40:32;6.55;;;4.25;;
47309;SDS011;33046;52.270;6.832;2023-03-29T13:42:53;4.38;;;3.13;;
47309;SDS011;33046;52.270;6.832;2023-03-29T13:45:07;4.70;;;3.95;;
47309;SDS011;33046;52.270;6.832;2023-03-29T13:47:39;4.75;;;3.33;;
47309;SDS011;33046;52.270;6.832;2023-03-29T13:49:51;4.85;;;3.28;;
47309;SDS011;33046;52.270;6.832;2023-03-29T13:52:02;3.88;;;3.47;;